sensor_id;sensor_type;location;lat;lon;timestamp;temperature;humidity
19930;DHT22;10127;47.780;9.606;2023-04-28T00:01:49;12.50;99.90
19930;DHT22;10127;47.780;9.606;2023-04-28T00:04:14;12.40;99.90
19930;DHT22;10127;47.780;9.606;2023-04-28T00:06:40;12.50;99.90
19930;DHT22;10127;47.780;9.606;2023-04-28T00:09:06;12.70;99.90
19930;DHT22;10127;47.780;9.606;2023-04-28T00:11:36;12.80;99.90
19930;DHT22;10127;47.780;9.606;2023-04-28T00:14:03;12.70;99.90
19930;DHT22;10127;47.780;9.606;2023-04-28T00:16:28;12.60;99.90
19930;DHT22;10127;47.780;9.606;2023-04-28T00:18:54;12.40;99.90
19930;DHT22;10127;47.780;9.606;2023-04-28T00:21:20;12.40;99.90
19930;DHT22;10127;47.780;9.606;2023-04-28T00:23:46;12.30;99.90
19930;DHT22;10127;47.780;9.606;2023-04-28T00:26:12;12.30;99.90
19930;DHT22;10127;47.780;9.606;2023-04-28T00:28:37;12.30;99.90
19930;DHT22;10127;47.780;9.606;2023-04-28T00:31:09;12.30;99.90
19930;DHT22;10127;47.780;9.606;2023-04-28T00:33:37;12.20;99.90
19930;DHT22;10127;47.780;9.606;2023-04-28T00:36:02;12.20;99.90
19930;DHT22;10127;47.780;9.606;2023-04-28T00:38:28;12.20;99.90
19930;DHT22;10127;47.780;9.606;2023-04-28T00:40:54;12.20;99.90
19930;DHT22;10127;47.780;9.606;2023-04-28T00:43:19;12.30;99.90
19930;DHT22;10127;47.780;9.606;2023-04-28T00:45:45;12.30;99.90
19930;DHT22;10127;47.780;9.606;2023-04-28T00:48:12;12.30;99.90
19930;DHT22;10127;47.780;9.606;2023-04-28T00:50:37;12.40;99.90
19930;DHT22;10127;47.780;9.606;2023-04-28T00:53:03;12.30;99.90
19930;DHT22;10127;47.780;9.606;2023-04-28T00:55:31;12.30;99.90
19930;DHT22;10127;47.780;9.606;2023-04-28T00:57:58;12.30;99.90
19930;DHT22;10127;47.780;9.606;2023-04-28T01:00:24;12.30;99.90
19930;DHT22;10127;47.780;9.606;2023-04-28T01:02:51;12.40;99.90
19930;DHT22;10127;47.780;9.606;2023-04-28T01:05:18;12.40;99.90
19930;DHT22;10127;47.780;9.606;2023-04-28T01:07:44;12.50;99.90
19930;DHT22;10127;47.780;9.606;2023-04-28T01:10:10;12.50;99.90
19930;DHT22;10127;47.780;9.606;2023-04-28T01:12:35;12.40;99.90
19930;DHT22;10127;47.780;9.606;2023-04-28T01:15:01;12.30;99.90
19930;DHT22;10127;47.780;9.606;2023-04-28T01:17:27;12.40;99.90
19930;DHT22;10127;47.780;9.606;2023-04-28T01:19:52;12.40;99.90
19930;DHT22;10127;47.780;9.606;2023-04-28T01:22:18;12.50;99.90
19930;DHT22;10127;47.780;9.606;2023-04-28T01:24:44;12.50;99.90
19930;DHT22;10127;47.780;9.606;2023-04-28T01:27:09;12.50;99.90
19930;DHT22;10127;47.780;9.606;2023-04-28T01:29:35;12.40;99.90
19930;DHT22;10127;47.780;9.606;2023-04-28T01:32:01;12.40;99.90
19930;DHT22;10127;47.780;9.606;2023-04-28T01:34:27;12.40;99.90
19930;DHT22;10127;47.780;9.606;2023-04-28T01:36:52;12.40;99.90
19930;DHT22;10127;47.780;9.606;2023-04-28T01:39:18;12.40;99.90
19930;DHT22;10127;47.780;9.606;2023-04-28T01:41:43;12.60;99.90
19930;DHT22;10127;47.780;9.606;2023-04-28T01:44:09;12.50;99.90
19930;DHT22;10127;47.780;9.606;2023-04-28T01:46:36;12.50;99.90
19930;DHT22;10127;47.780;9.606;2023-04-28T01:49:01;12.50;99.90
19930;DHT22;10127;47.780;9.606;2023-04-28T01:51:27;12.40;99.90
19930;DHT22;10127;47.780;9.606;2023-04-28T01:53:52;12.50;99.90
19930;DHT22;10127;47.780;9.606;2023-04-28T01:56:18;12.40;99.90
19930;DHT22;10127;47.780;9.606;2023-04-28T01:58:44;12.40;99.90
19930;DHT22;10127;47.780;9.606;2023-04-28T02:01:09;12.30;99.90
19930;DHT22;10127;47.780;9.606;2023-04-28T02:03:35;12.40;99.90
19930;DHT22;10127;47.780;9.606;2023-04-28T02:06:01;12.40;99.90
19930;DHT22;10127;47.780;9.606;2023-04-28T02:08:26;12.50;99.90
19930;DHT22;10127;47.780;9.606;2023-04-28T02:10:52;12.60;99.90
19930;DHT22;10127;47.780;9.606;2023-04-28T02:13:18;12.70;99.90
19930;DHT22;10127;47.780;9.606;2023-04-28T02:15:43;12.60;99.90
19930;DHT22;10127;47.780;9.606;2023-04-28T02:18:09;12.60;99.90
19930;DHT22;10127;47.780;9.606;2023-04-28T02:20:35;12.60;99.90
19930;DHT22;10127;47.780;9.606;2023-04-28T02:23:00;12.60;99.90
19930;DHT22;10127;47.780;9.606;2023-04-28T02:25:26;12.50;99.90
19930;DHT22;10127;47.780;9.606;2023-04-28T02:27:58;12.60;99.90
19930;DHT22;10127;47.780;9.606;2023-04-28T02:30:24;12.60;99.90
19930;DHT22;10127;47.780;9.606;2023-04-28T02:32:50;12.80;99.90
19930;DHT22;10127;47.780;9.606;2023-04-28T02:35:16;12.70;99.90
19930;DHT22;10127;47.780;9.606;2023-04-28T02:37:41;12.50;99.90
19930;DHT22;10127;47.780;9.606;2023-04-28T02:40:07;12.40;99.90
19930;DHT22;10127;47.780;9.606;2023-04-28T02:42:33;12.30;99.90
19930;DHT22;10127;47.780;9.606;2023-04-28T02:44:58;12.30;99.90
19930;DHT22;10127;47.780;9.606;2023-04-28T02:47:24;12.30;99.90
19930;DHT22;10127;47.780;9.606;2023-04-28T03:10:24;12.20;99.90
19930;DHT22;10127;47.780;9.606;2023-04-28T03:12:50;12.10;99.90
19930;DHT22;10127;47.780;9.606;2023-04-28T03:15:22;12.10;99.90
19930;DHT22;10127;47.780;9.606;2023-04-28T03:17:47;12.10;99.90
19930;DHT22;10127;47.780;9.606;2023-04-28T03:20:13;12.10;99.90
19930;DHT22;10127;47.780;9.606;2023-04-28T03:22:39;12.00;99.90
19930;DHT22;10127;47.780;9.606;2023-04-28T03:25:04;11.90;99.90
19930;DHT22;10127;47.780;9.606;2023-04-28T03:27:30;11.90;99.90
19930;DHT22;10127;47.780;9.606;2023-04-28T03:29:56;11.80;99.90
19930;DHT22;10127;47.780;9.606;2023-04-28T03:32:21;11.80;99.90
19930;DHT22;10127;47.780;9.606;2023-04-28T03:34:47;11.80;99.90
19930;DHT22;10127;47.780;9.606;2023-04-28T03:37:13;11.90;99.90
19930;DHT22;10127;47.780;9.606;2023-04-28T03:39:38;11.80;99.90
19930;DHT22;10127;47.780;9.606;2023-04-28T03:42:04;11.80;99.90
19930;DHT22;10127;47.780;9.606;2023-04-28T03:44:29;11.70;99.90
19930;DHT22;10127;47.780;9.606;2023-04-28T03:46:55;11.70;99.90
19930;DHT22;10127;47.780;9.606;2023-04-28T03:49:21;11.70;99.90
19930;DHT22;10127;47.780;9.606;2023-04-28T03:51:47;11.80;99.90
19930;DHT22;10127;47.780;9.606;2023-04-28T03:54:12;11.70;99.90
19930;DHT22;10127;47.780;9.606;2023-04-28T03:56:38;11.70;99.90
19930;DHT22;10127;47.780;9.606;2023-04-28T03:59:04;11.60;99.90
19930;DHT22;10127;47.780;9.606;2023-04-28T04:01:29;11.70;99.90
19930;DHT22;10127;47.780;9.606;2023-04-28T04:03:55;11.60;99.90
19930;DHT22;10127;47.780;9.606;2023-04-28T04:06:21;11.60;99.90
19930;DHT22;10127;47.780;9.606;2023-04-28T04:08:46;11.60;99.90
19930;DHT22;10127;47.780;9.606;2023-04-28T04:11:12;11.60;99.90
19930;DHT22;10127;47.780;9.606;2023-04-28T04:13:38;11.60;99.90
19930;DHT22;10127;47.780;9.606;2023-04-28T04:16:03;11.50;99.90
19930;DHT22;10127;47.780;9.606;2023-04-28T04:18:29;11.40;99.90
19930;DHT22;10127;47.780;9.606;2023-04-28T04:20:55;11.50;99.90
19930;DHT22;10127;47.780;9.606;2023-04-28T04:23:22;11.50;99.90
19930;DHT22;10127;47.780;9.606;2023-04-28T04:25:48;11.50;99.90
19930;DHT22;10127;47.780;9.606;2023-04-28T04:28:14;11.50;99.90
19930;DHT22;10127;47.780;9.606;2023-04-28T04:30:40;11.50;99.90
19930;DHT22;10127;47.780;9.606;2023-04-28T04:33:05;11.60;99.90
19930;DHT22;10127;47.780;9.606;2023-04-28T04:35:31;11.70;99.90
19930;DHT22;10127;47.780;9.606;2023-04-28T04:37:57;11.80;99.90
19930;DHT22;10127;47.780;9.606;2023-04-28T04:40:23;11.90;99.90
19930;DHT22;10127;47.780;9.606;2023-04-28T04:42:48;11.80;99.90
19930;DHT22;10127;47.780;9.606;2023-04-28T04:45:14;11.80;99.90
19930;DHT22;10127;47.780;9.606;2023-04-28T04:47:40;11.80;99.90
19930;DHT22;10127;47.780;9.606;2023-04-28T04:50:06;11.80;99.90
19930;DHT22;10127;47.780;9.606;2023-04-28T04:52:32;11.80;99.90
19930;DHT22;10127;47.780;9.606;2023-04-28T04:54:58;11.80;99.90
19930;DHT22;10127;47.780;9.606;2023-04-28T04:57:24;11.70;99.90
19930;DHT22;10127;47.780;9.606;2023-04-28T04:59:50;11.60;99.90
19930;DHT22;10127;47.780;9.606;2023-04-28T05:02:16;11.60;99.90
19930;DHT22;10127;47.780;9.606;2023-04-28T05:04:42;11.40;99.90
19930;DHT22;10127;47.780;9.606;2023-04-28T05:07:07;11.50;99.90
19930;DHT22;10127;47.780;9.606;2023-04-28T05:09:33;11.50;99.90
19930;DHT22;10127;47.780;9.606;2023-04-28T05:11:59;11.60;99.90
19930;DHT22;10127;47.780;9.606;2023-04-28T05:14:24;11.60;99.90
19930;DHT22;10127;47.780;9.606;2023-04-28T05:16:50;11.50;99.90
19930;DHT22;10127;47.780;9.606;2023-04-28T05:19:15;11.50;99.90
19930;DHT22;10127;47.780;9.606;2023-04-28T05:21:41;11.50;99.90
19930;DHT22;10127;47.780;9.606;2023-04-28T05:24:06;11.50;99.90
19930;DHT22;10127;47.780;9.606;2023-04-28T05:26:32;11.50;99.90
19930;DHT22;10127;47.780;9.606;2023-04-28T05:28:57;11.60;99.90
19930;DHT22;10127;47.780;9.606;2023-04-28T05:31:23;11.60;99.90
19930;DHT22;10127;47.780;9.606;2023-04-28T05:33:49;11.70;99.90
19930;DHT22;10127;47.780;9.606;2023-04-28T05:36:14;11.60;99.90
19930;DHT22;10127;47.780;9.606;2023-04-28T05:38:43;11.60;99.90
19930;DHT22;10127;47.780;9.606;2023-04-28T05:41:09;11.60;99.90
19930;DHT22;10127;47.780;9.606;2023-04-28T05:43:34;11.50;99.90
19930;DHT22;10127;47.780;9.606;2023-04-28T05:46:00;11.40;99.90
19930;DHT22;10127;47.780;9.606;2023-04-28T05:48:26;11.40;99.90
19930;DHT22;10127;47.780;9.606;2023-04-28T05:50:52;11.50;99.90
19930;DHT22;10127;47.780;9.606;2023-04-28T05:53:17;11.50;99.90
19930;DHT22;10127;47.780;9.606;2023-04-28T05:55:43;11.50;99.90
19930;DHT22;10127;47.780;9.606;2023-04-28T05:58:08;11.50;99.90
19930;DHT22;10127;47.780;9.606;2023-04-28T06:00:34;11.50;99.90
19930;DHT22;10127;47.780;9.606;2023-04-28T06:03:00;11.60;99.90
19930;DHT22;10127;47.780;9.606;2023-04-28T06:05:26;11.50;99.90
19930;DHT22;10127;47.780;9.606;2023-04-28T06:07:51;11.50;99.90
19930;DHT22;10127;47.780;9.606;2023-04-28T06:10:18;11.50;99.90
19930;DHT22;10127;47.780;9.606;2023-04-28T06:12:44;11.60;99.90
19930;DHT22;10127;47.780;9.606;2023-04-28T06:15:10;11.60;99.90
19930;DHT22;10127;47.780;9.606;2023-04-28T06:17:37;11.70;99.90
19930;DHT22;10127;47.780;9.606;2023-04-28T06:20:03;11.70;99.90
19930;DHT22;10127;47.780;9.606;2023-04-28T06:22:29;11.70;99.90
19930;DHT22;10127;47.780;9.606;2023-04-28T06:24:55;11.70;99.90
19930;DHT22;10127;47.780;9.606;2023-04-28T06:27:20;11.70;99.90
19930;DHT22;10127;47.780;9.606;2023-04-28T06:29:46;11.70;99.90
19930;DHT22;10127;47.780;9.606;2023-04-28T06:32:11;11.70;99.90
19930;DHT22;10127;47.780;9.606;2023-04-28T06:34:37;11.70;99.90
19930;DHT22;10127;47.780;9.606;2023-04-28T06:37:02;11.70;99.90
19930;DHT22;10127;47.780;9.606;2023-04-28T06:39:28;11.90;99.90
19930;DHT22;10127;47.780;9.606;2023-04-28T06:41:54;11.90;99.90
19930;DHT22;10127;47.780;9.606;2023-04-28T06:44:19;11.80;99.90
19930;DHT22;10127;47.780;9.606;2023-04-28T06:46:45;11.80;99.90
19930;DHT22;10127;47.780;9.606;2023-04-28T06:49:10;11.70;99.90
19930;DHT22;10127;47.780;9.606;2023-04-28T06:51:36;11.80;99.90
19930;DHT22;10127;47.780;9.606;2023-04-28T06:54:02;11.90;99.90
19930;DHT22;10127;47.780;9.606;2023-04-28T06:56:34;12.00;99.90
19930;DHT22;10127;47.780;9.606;2023-04-28T06:59:00;12.00;99.90
19930;DHT22;10127;47.780;9.606;2023-04-28T07:01:26;12.00;99.90
19930;DHT22;10127;47.780;9.606;2023-04-28T07:03:51;12.20;99.90
19930;DHT22;10127;47.780;9.606;2023-04-28T07:06:17;12.60;99.90
19930;DHT22;10127;47.780;9.606;2023-04-28T07:08:42;12.70;99.90
19930;DHT22;10127;47.780;9.606;2023-04-28T07:11:08;12.80;99.90
19930;DHT22;10127;47.780;9.606;2023-04-28T07:13:34;13.00;99.90
19930;DHT22;10127;47.780;9.606;2023-04-28T07:15:59;13.10;99.90
19930;DHT22;10127;47.780;9.606;2023-04-28T07:18:25;13.10;99.90
19930;DHT22;10127;47.780;9.606;2023-04-28T07:20:51;13.20;99.90
19930;DHT22;10127;47.780;9.606;2023-04-28T07:23:16;13.40;99.90
19930;DHT22;10127;47.780;9.606;2023-04-28T07:25:42;13.40;99.90
19930;DHT22;10127;47.780;9.606;2023-04-28T07:28:08;13.50;99.90
19930;DHT22;10127;47.780;9.606;2023-04-28T07:30:34;13.70;99.90
19930;DHT22;10127;47.780;9.606;2023-04-28T07:33:00;13.80;99.90
19930;DHT22;10127;47.780;9.606;2023-04-28T07:35:27;13.80;99.90
19930;DHT22;10127;47.780;9.606;2023-04-28T07:37:53;13.80;99.90
19930;DHT22;10127;47.780;9.606;2023-04-28T07:40:19;13.80;99.90
19930;DHT22;10127;47.780;9.606;2023-04-28T07:42:46;13.80;99.90
19930;DHT22;10127;47.780;9.606;2023-04-28T07:45:12;14.00;99.90
19930;DHT22;10127;47.780;9.606;2023-04-28T07:47:38;13.90;99.90
19930;DHT22;10127;47.780;9.606;2023-04-28T07:50:04;14.00;99.90
19930;DHT22;10127;47.780;9.606;2023-04-28T07:52:32;14.00;99.90
19930;DHT22;10127;47.780;9.606;2023-04-28T07:54:58;14.10;99.90
19930;DHT22;10127;47.780;9.606;2023-04-28T07:57:24;14.20;99.90
19930;DHT22;10127;47.780;9.606;2023-04-28T07:59:50;14.10;99.90
19930;DHT22;10127;47.780;9.606;2023-04-28T08:02:16;13.80;99.90
19930;DHT22;10127;47.780;9.606;2023-04-28T08:04:43;13.70;99.90
19930;DHT22;10127;47.780;9.606;2023-04-28T08:07:09;13.50;99.90
19930;DHT22;10127;47.780;9.606;2023-04-28T08:09:35;13.50;99.90
19930;DHT22;10127;47.780;9.606;2023-04-28T08:12:01;13.50;99.90
19930;DHT22;10127;47.780;9.606;2023-04-28T08:14:27;13.40;99.90
19930;DHT22;10127;47.780;9.606;2023-04-28T08:16:52;13.30;99.90
19930;DHT22;10127;47.780;9.606;2023-04-28T08:19:19;13.20;99.90
19930;DHT22;10127;47.780;9.606;2023-04-28T08:21:44;13.10;99.90
19930;DHT22;10127;47.780;9.606;2023-04-28T08:24:10;12.90;99.90
19930;DHT22;10127;47.780;9.606;2023-04-28T08:26:36;12.90;99.90
19930;DHT22;10127;47.780;9.606;2023-04-28T08:29:03;12.80;99.90
19930;DHT22;10127;47.780;9.606;2023-04-28T08:31:28;12.80;99.90
19930;DHT22;10127;47.780;9.606;2023-04-28T08:33:54;12.70;99.90
19930;DHT22;10127;47.780;9.606;2023-04-28T08:36:19;12.60;99.90
19930;DHT22;10127;47.780;9.606;2023-04-28T08:38:46;12.50;99.90
19930;DHT22;10127;47.780;9.606;2023-04-28T08:41:14;12.40;99.90
19930;DHT22;10127;47.780;9.606;2023-04-28T08:43:39;12.40;99.90
19930;DHT22;10127;47.780;9.606;2023-04-28T08:46:07;12.40;99.90
19930;DHT22;10127;47.780;9.606;2023-04-28T08:48:40;12.40;99.90
19930;DHT22;10127;47.780;9.606;2023-04-28T08:51:06;12.50;99.90
19930;DHT22;10127;47.780;9.606;2023-04-28T08:53:36;12.50;99.90
19930;DHT22;10127;47.780;9.606;2023-04-28T08:56:05;12.40;99.90
19930;DHT22;10127;47.780;9.606;2023-04-28T08:58:32;12.50;99.90
19930;DHT22;10127;47.780;9.606;2023-04-28T09:00:59;12.60;99.90
19930;DHT22;10127;47.780;9.606;2023-04-28T09:03:27;12.80;99.90
19930;DHT22;10127;47.780;9.606;2023-04-28T09:05:52;13.00;99.90
19930;DHT22;10127;47.780;9.606;2023-04-28T09:08:18;13.00;99.90
19930;DHT22;10127;47.780;9.606;2023-04-28T09:10:43;13.40;99.90
19930;DHT22;10127;47.780;9.606;2023-04-28T09:13:24;13.40;99.90
19930;DHT22;10127;47.780;9.606;2023-04-28T09:15:50;13.40;99.90
19930;DHT22;10127;47.780;9.606;2023-04-28T09:18:16;13.40;99.90
19930;DHT22;10127;47.780;9.606;2023-04-28T09:20:41;13.50;99.90
19930;DHT22;10127;47.780;9.606;2023-04-28T09:23:16;13.40;99.90
19930;DHT22;10127;47.780;9.606;2023-04-28T09:26:15;13.40;99.90
19930;DHT22;10127;47.780;9.606;2023-04-28T09:28:40;13.30;99.90
19930;DHT22;10127;47.780;9.606;2023-04-28T09:31:21;13.30;99.90
19930;DHT22;10127;47.780;9.606;2023-04-28T09:33:57;13.40;99.90
19930;DHT22;10127;47.780;9.606;2023-04-28T09:36:27;13.50;99.90
19930;DHT22;10127;47.780;9.606;2023-04-28T09:38:59;13.60;99.90
19930;DHT22;10127;47.780;9.606;2023-04-28T09:41:43;13.80;99.90
19930;DHT22;10127;47.780;9.606;2023-04-28T09:44:16;14.00;99.90
19930;DHT22;10127;47.780;9.606;2023-04-28T09:46:43;14.10;99.90
19930;DHT22;10127;47.780;9.606;2023-04-28T09:49:09;14.20;99.90
19930;DHT22;10127;47.780;9.606;2023-04-28T09:51:35;14.10;99.90
19930;DHT22;10127;47.780;9.606;2023-04-28T09:54:02;14.10;99.90
19930;DHT22;10127;47.780;9.606;2023-04-28T09:56:29;13.90;99.90
19930;DHT22;10127;47.780;9.606;2023-04-28T09:59:00;13.80;99.90
19930;DHT22;10127;47.780;9.606;2023-04-28T10:01:39;13.90;99.90
19930;DHT22;10127;47.780;9.606;2023-04-28T10:04:05;13.90;99.90
19930;DHT22;10127;47.780;9.606;2023-04-28T10:06:33;13.80;99.90
19930;DHT22;10127;47.780;9.606;2023-04-28T10:09:02;13.70;99.90
19930;DHT22;10127;47.780;9.606;2023-04-28T10:11:28;13.70;99.90
19930;DHT22;10127;47.780;9.606;2023-04-28T10:13:55;13.50;99.90
19930;DHT22;10127;47.780;9.606;2023-04-28T10:16:21;13.40;99.90
19930;DHT22;10127;47.780;9.606;2023-04-28T10:18:48;13.50;99.90
19930;DHT22;10127;47.780;9.606;2023-04-28T10:21:17;13.70;99.90
19930;DHT22;10127;47.780;9.606;2023-04-28T10:23:59;13.80;99.90
19930;DHT22;10127;47.780;9.606;2023-04-28T10:29:25;14.00;99.90
19930;DHT22;10127;47.780;9.606;2023-04-28T10:34:40;14.50;99.90
19930;DHT22;10127;47.780;9.606;2023-04-28T10:37:06;14.50;99.90
19930;DHT22;10127;47.780;9.606;2023-04-28T10:39:32;14.60;99.90
19930;DHT22;10127;47.780;9.606;2023-04-28T10:41:57;14.50;99.90
19930;DHT22;10127;47.780;9.606;2023-04-28T10:47:08;14.70;99.90
19930;DHT22;10127;47.780;9.606;2023-04-28T10:55:32;14.80;99.90
19930;DHT22;10127;47.780;9.606;2023-04-28T10:58:29;14.80;99.90
19930;DHT22;10127;47.780;9.606;2023-04-28T11:06:29;14.80;99.90
19930;DHT22;10127;47.780;9.606;2023-04-28T11:08:58;14.90;99.90
19930;DHT22;10127;47.780;9.606;2023-04-28T11:11:29;14.90;99.90
19930;DHT22;10127;47.780;9.606;2023-04-28T11:16:53;14.80;99.90
19930;DHT22;10127;47.780;9.606;2023-04-28T11:19:24;14.80;99.90
19930;DHT22;10127;47.780;9.606;2023-04-28T11:21:51;14.70;99.90
19930;DHT22;10127;47.780;9.606;2023-04-28T11:24:17;14.70;99.90
19930;DHT22;10127;47.780;9.606;2023-04-28T11:26:43;14.60;99.90
19930;DHT22;10127;47.780;9.606;2023-04-28T11:29:10;14.60;99.90
19930;DHT22;10127;47.780;9.606;2023-04-28T11:31:36;14.50;99.90
19930;DHT22;10127;47.780;9.606;2023-04-28T11:34:10;14.50;99.90
19930;DHT22;10127;47.780;9.606;2023-04-28T11:36:41;14.60;99.90
19930;DHT22;10127;47.780;9.606;2023-04-28T11:39:09;14.60;99.90
19930;DHT22;10127;47.780;9.606;2023-04-28T11:41:40;14.50;99.90
19930;DHT22;10127;47.780;9.606;2023-04-28T11:44:20;14.50;99.90
19930;DHT22;10127;47.780;9.606;2023-04-28T11:46:48;14.40;99.90
19930;DHT22;10127;47.780;9.606;2023-04-28T11:49:21;14.40;99.90
19930;DHT22;10127;47.780;9.606;2023-04-28T11:51:47;14.40;99.90
19930;DHT22;10127;47.780;9.606;2023-04-28T11:54:26;14.50;99.90
19930;DHT22;10127;47.780;9.606;2023-04-28T11:56:54;14.50;99.90
19930;DHT22;10127;47.780;9.606;2023-04-28T11:59:34;14.30;99.90
19930;DHT22;10127;47.780;9.606;2023-04-28T12:02:04;14.40;99.90
19930;DHT22;10127;47.780;9.606;2023-04-28T12:07:11;14.40;99.90
19930;DHT22;10127;47.780;9.606;2023-04-28T12:12:41;14.80;99.90
19930;DHT22;10127;47.780;9.606;2023-04-28T12:15:08;14.80;99.90
19930;DHT22;10127;47.780;9.606;2023-04-28T12:17:40;14.90;99.90
19930;DHT22;10127;47.780;9.606;2023-04-28T12:20:11;14.90;99.90
19930;DHT22;10127;47.780;9.606;2023-04-28T12:22:45;15.00;99.90
19930;DHT22;10127;47.780;9.606;2023-04-28T12:25:18;14.90;99.90
19930;DHT22;10127;47.780;9.606;2023-04-28T12:30:27;14.70;99.90
19930;DHT22;10127;47.780;9.606;2023-04-28T12:32:53;14.60;99.90
19930;DHT22;10127;47.780;9.606;2023-04-28T12:35:24;14.60;99.90
19930;DHT22;10127;47.780;9.606;2023-04-28T12:37:50;14.60;99.90
19930;DHT22;10127;47.780;9.606;2023-04-28T12:40:17;14.70;99.90
19930;DHT22;10127;47.780;9.606;2023-04-28T12:42:43;14.80;99.90
19930;DHT22;10127;47.780;9.606;2023-04-28T12:45:10;14.80;99.90
19930;DHT22;10127;47.780;9.606;2023-04-28T12:47:36;14.80;99.90
19930;DHT22;10127;47.780;9.606;2023-04-28T12:50:03;14.80;99.90
19930;DHT22;10127;47.780;9.606;2023-04-28T12:52:29;14.80;99.90
19930;DHT22;10127;47.780;9.606;2023-04-28T12:54:58;14.80;99.90
19930;DHT22;10127;47.780;9.606;2023-04-28T12:57:24;14.80;99.90
19930;DHT22;10127;47.780;9.606;2023-04-28T12:59:50;15.00;99.90
19930;DHT22;10127;47.780;9.606;2023-04-28T13:02:17;15.20;99.90
19930;DHT22;10127;47.780;9.606;2023-04-28T13:04:43;15.30;99.90
19930;DHT22;10127;47.780;9.606;2023-04-28T13:07:11;15.50;99.90
19930;DHT22;10127;47.780;9.606;2023-04-28T13:09:36;15.50;99.90
19930;DHT22;10127;47.780;9.606;2023-04-28T13:12:02;15.60;99.90
19930;DHT22;10127;47.780;9.606;2023-04-28T13:14:29;15.60;99.90
19930;DHT22;10127;47.780;9.606;2023-04-28T13:16:55;15.60;99.90
19930;DHT22;10127;47.780;9.606;2023-04-28T13:19:22;15.70;99.90
19930;DHT22;10127;47.780;9.606;2023-04-28T13:21:47;15.70;99.90
19930;DHT22;10127;47.780;9.606;2023-04-28T13:24:13;15.80;99.90
19930;DHT22;10127;47.780;9.606;2023-04-28T13:26:38;15.80;99.90
19930;DHT22;10127;47.780;9.606;2023-04-28T13:29:05;15.80;99.90
19930;DHT22;10127;47.780;9.606;2023-04-28T13:31:32;15.70;99.90
19930;DHT22;10127;47.780;9.606;2023-04-28T13:33:58;15.70;99.90
19930;DHT22;10127;47.780;9.606;2023-04-28T13:36:27;15.80;99.90
19930;DHT22;10127;47.780;9.606;2023-04-28T13:38:56;15.60;99.90
19930;DHT22;10127;47.780;9.606;2023-04-28T13:41:22;15.60;99.90
19930;DHT22;10127;47.780;9.606;2023-04-28T13:43:48;15.60;99.90
19930;DHT22;10127;47.780;9.606;2023-04-28T13:46:13;15.60;99.90
19930;DHT22;10127;47.780;9.606;2023-04-28T13:48:39;15.80;99.90
19930;DHT22;10127;47.780;9.606;2023-04-28T13:51:05;15.90;99.90
19930;DHT22;10127;47.780;9.606;2023-04-28T13:53:32;15.90;99.90
19930;DHT22;10127;47.780;9.606;2023-04-28T13:55:58;16.00;99.90
19930;DHT22;10127;47.780;9.606;2023-04-28T13:58:28;16.40;99.90
19930;DHT22;10127;47.780;9.606;2023-04-28T14:00:54;16.80;99.90
19930;DHT22;10127;47.780;9.606;2023-04-28T14:03:22;16.90;99.90
19930;DHT22;10127;47.780;9.606;2023-04-28T14:05:53;16.70;99.90
19930;DHT22;10127;47.780;9.606;2023-04-28T14:08:19;16.60;99.90
19930;DHT22;10127;47.780;9.606;2023-04-28T14:10:45;16.70;99.90
19930;DHT22;10127;47.780;9.606;2023-04-28T14:13:11;16.70;99.90
19930;DHT22;10127;47.780;9.606;2023-04-28T14:15:36;16.70;99.90
19930;DHT22;10127;47.780;9.606;2023-04-28T14:18:03;16.70;99.90
19930;DHT22;10127;47.780;9.606;2023-04-28T14:20:29;16.50;99.90
19930;DHT22;10127;47.780;9.606;2023-04-28T14:22:55;16.80;99.90
19930;DHT22;10127;47.780;9.606;2023-04-28T14:25:21;16.50;99.90
19930;DHT22;10127;47.780;9.606;2023-04-28T14:27:48;16.40;99.90
19930;DHT22;10127;47.780;9.606;2023-04-28T14:30:14;16.20;99.90
19930;DHT22;10127;47.780;9.606;2023-04-28T14:32:40;16.10;99.90
19930;DHT22;10127;47.780;9.606;2023-04-28T14:35:06;16.00;99.90
19930;DHT22;10127;47.780;9.606;2023-04-28T14:37:32;15.90;99.90
19930;DHT22;10127;47.780;9.606;2023-04-28T14:39:58;15.90;99.90
19930;DHT22;10127;47.780;9.606;2023-04-28T14:42:28;15.90;99.90
19930;DHT22;10127;47.780;9.606;2023-04-28T14:44:55;16.20;99.90
19930;DHT22;10127;47.780;9.606;2023-04-28T14:47:21;16.40;99.90
19930;DHT22;10127;47.780;9.606;2023-04-28T14:49:47;16.50;99.90
19930;DHT22;10127;47.780;9.606;2023-04-28T14:52:13;16.70;99.90
19930;DHT22;10127;47.780;9.606;2023-04-28T14:54:38;17.00;99.90
19930;DHT22;10127;47.780;9.606;2023-04-28T14:57:04;17.20;99.90
19930;DHT22;10127;47.780;9.606;2023-04-28T14:59:29;17.10;99.90
19930;DHT22;10127;47.780;9.606;2023-04-28T15:01:56;17.00;99.90
19930;DHT22;10127;47.780;9.606;2023-04-28T15:04:21;16.90;99.90
19930;DHT22;10127;47.780;9.606;2023-04-28T15:06:54;16.70;99.90
19930;DHT22;10127;47.780;9.606;2023-04-28T15:09:20;16.60;99.90
19930;DHT22;10127;47.780;9.606;2023-04-28T15:11:45;16.70;99.90
19930;DHT22;10127;47.780;9.606;2023-04-28T15:14:11;16.60;99.90
19930;DHT22;10127;47.780;9.606;2023-04-28T15:16:36;16.50;99.90
19930;DHT22;10127;47.780;9.606;2023-04-28T15:19:02;16.60;99.90
19930;DHT22;10127;47.780;9.606;2023-04-28T15:21:28;16.60;99.90
19930;DHT22;10127;47.780;9.606;2023-04-28T15:23:54;16.60;99.90
19930;DHT22;10127;47.780;9.606;2023-04-28T15:26:20;16.70;99.90
19930;DHT22;10127;47.780;9.606;2023-04-28T15:28:45;16.60;99.90
19930;DHT22;10127;47.780;9.606;2023-04-28T15:31:11;16.50;99.90
19930;DHT22;10127;47.780;9.606;2023-04-28T15:33:37;16.60;99.90
19930;DHT22;10127;47.780;9.606;2023-04-28T15:36:03;16.70;99.90
19930;DHT22;10127;47.780;9.606;2023-04-28T15:38:29;16.80;99.90
19930;DHT22;10127;47.780;9.606;2023-04-28T15:40:56;16.70;99.90
19930;DHT22;10127;47.780;9.606;2023-04-28T15:43:22;16.80;99.90
19930;DHT22;10127;47.780;9.606;2023-04-28T15:45:47;17.00;99.90
19930;DHT22;10127;47.780;9.606;2023-04-28T15:48:13;17.20;99.90
19930;DHT22;10127;47.780;9.606;2023-04-28T15:50:39;17.30;99.90
19930;DHT22;10127;47.780;9.606;2023-04-28T15:53:05;17.60;99.90
19930;DHT22;10127;47.780;9.606;2023-04-28T15:55:32;17.60;99.90
19930;DHT22;10127;47.780;9.606;2023-04-28T15:57:57;17.50;99.90
19930;DHT22;10127;47.780;9.606;2023-04-28T16:00:23;17.30;99.90
19930;DHT22;10127;47.780;9.606;2023-04-28T16:02:50;17.20;99.90
19930;DHT22;10127;47.780;9.606;2023-04-28T16:05:16;17.10;99.90
19930;DHT22;10127;47.780;9.606;2023-04-28T16:07:41;16.90;99.90
19930;DHT22;10127;47.780;9.606;2023-04-28T16:10:12;16.90;99.90
19930;DHT22;10127;47.780;9.606;2023-04-28T16:12:39;16.90;99.90
19930;DHT22;10127;47.780;9.606;2023-04-28T16:15:06;17.10;99.90
19930;DHT22;10127;47.780;9.606;2023-04-28T16:17:33;17.20;99.90
19930;DHT22;10127;47.780;9.606;2023-04-28T16:20:00;17.50;99.90